sensor_id;sensor_type;location;lat;lon;timestamp;pressure;altitude;pressure_sealevel;temperature;humidity
71976;BME280;60680;52.182;5.398;2022-08-21T00:02:18;101744.06;;;17.53;71.68
71976;BME280;60680;52.182;5.398;2022-08-21T00:04:46;101742.38;;;17.52;71.42
71976;BME280;60680;52.182;5.398;2022-08-21T00:07:23;101748.78;;;17.48;71.37
71976;BME280;60680;52.182;5.398;2022-08-21T00:09:52;101745.81;;;17.40;71.32
71976;BME280;60680;52.182;5.398;2022-08-21T00:12:19;101746.03;;;17.37;71.72
71976;BME280;60680;52.182;5.398;2022-08-21T00:14:46;101749.28;;;17.40;71.67
71976;BME280;60680;52.182;5.398;2022-08-21T00:17:13;101744.13;;;17.39;71.70
71976;BME280;60680;52.182;5.398;2022-08-21T00:19:40;101743.41;;;17.37;71.68
71976;BME280;60680;52.182;5.398;2022-08-21T00:22:07;101746.03;;;17.37;71.54
71976;BME280;60680;52.182;5.398;2022-08-21T00:24:36;101743.41;;;17.37;71.85
71976;BME280;60680;52.182;5.398;2022-08-21T00:27:03;101737.69;;;17.30;71.65
71976;BME280;60680;52.182;5.398;2022-08-21T00:29:31;101731.56;;;17.29;71.80
71976;BME280;60680;52.182;5.398;2022-08-21T00:31:58;101732.81;;;17.24;72.09
71976;BME280;60680;52.182;5.398;2022-08-21T00:34:25;101735.31;;;17.25;71.69
71976;BME280;60680;52.182;5.398;2022-08-21T00:36:52;101731.03;;;17.24;71.94
71976;BME280;60680;52.182;5.398;2022-08-21T00:39:18;101727.56;;;17.24;71.74
71976;BME280;60680;52.182;5.398;2022-08-21T00:41:45;101730.66;;;17.16;72.08
71976;BME280;60680;52.182;5.398;2022-08-21T00:44:14;101722.03;;;17.14;72.25
71976;BME280;60680;52.182;5.398;2022-08-21T00:46:42;101733.50;;;17.13;72.13
71976;BME280;60680;52.182;5.398;2022-08-21T00:49:11;101728.34;;;17.11;71.98
71976;BME280;60680;52.182;5.398;2022-08-21T00:51:51;101734.34;;;17.14;71.86
71976;BME280;60680;52.182;5.398;2022-08-21T00:54:19;101738.50;;;17.03;72.01
71976;BME280;60680;52.182;5.398;2022-08-21T00:56:51;101736.41;;;17.08;72.43
71976;BME280;60680;52.182;5.398;2022-08-21T00:59:20;101738.72;;;17.00;72.28
71976;BME280;60680;52.182;5.398;2022-08-21T01:01:48;101738.72;;;17.00;72.39
71976;BME280;60680;52.182;5.398;2022-08-21T01:04:16;101733.53;;;16.99;72.69
71976;BME280;60680;52.182;5.398;2022-08-21T01:06:44;101732.03;;;16.95;72.93
71976;BME280;60680;52.182;5.398;2022-08-21T01:09:12;101726.78;;;16.95;71.97
71976;BME280;60680;52.182;5.398;2022-08-21T01:11:40;101735.50;;;16.81;72.59
71976;BME280;60680;52.182;5.398;2022-08-21T01:14:10;101730.91;;;16.84;73.00
71976;BME280;60680;52.182;5.398;2022-08-21T01:16:40;101732.50;;;16.87;72.81
71976;BME280;60680;52.182;5.398;2022-08-21T01:19:10;101726.63;;;16.83;73.07
71976;BME280;60680;52.182;5.398;2022-08-21T01:21:37;101722.19;;;16.84;72.54
71976;BME280;60680;52.182;5.398;2022-08-21T01:24:04;101718.81;;;16.82;73.05
71976;BME280;60680;52.182;5.398;2022-08-21T01:26:33;101729.41;;;16.80;73.14
71976;BME280;60680;52.182;5.398;2022-08-21T01:29:28;101731.47;;;16.75;72.89
71976;BME280;60680;52.182;5.398;2022-08-21T01:31:54;101733.25;;;16.75;73.21
71976;BME280;60680;52.182;5.398;2022-08-21T01:34:20;101728.09;;;16.73;73.42
71976;BME280;60680;52.182;5.398;2022-08-21T01:36:47;101726.38;;;16.72;73.06
71976;BME280;60680;52.182;5.398;2022-08-21T01:39:15;101724.81;;;16.69;73.21
71976;BME280;60680;52.182;5.398;2022-08-21T01:41:44;101726.00;;;16.64;73.12
71976;BME280;60680;52.182;5.398;2022-08-21T01:44:11;101726.97;;;16.63;73.56
71976;BME280;60680;52.182;5.398;2022-08-21T01:46:38;101719.84;;;16.65;73.66
71976;BME280;60680;52.182;5.398;2022-08-21T01:49:05;101716.84;;;16.57;74.05
71976;BME280;60680;52.182;5.398;2022-08-21T01:51:32;101718.78;;;16.53;73.92
71976;BME280;60680;52.182;5.398;2022-08-21T01:53:58;101717.97;;;16.52;73.99
71976;BME280;60680;52.182;5.398;2022-08-21T01:56:25;101720.78;;;16.49;73.78
71976;BME280;60680;52.182;5.398;2022-08-21T01:58:53;101714.66;;;16.49;74.23
71976;BME280;60680;52.182;5.398;2022-08-21T02:01:20;101718.25;;;16.48;74.06
71976;BME280;60680;52.182;5.398;2022-08-21T02:03:47;101716.81;;;16.42;74.62
71976;BME280;60680;52.182;5.398;2022-08-21T02:06:14;101715.59;;;16.34;74.95
71976;BME280;60680;52.182;5.398;2022-08-21T02:08:44;101712.06;;;16.35;74.22
71976;BME280;60680;52.182;5.398;2022-08-21T02:11:11;101711.19;;;16.34;74.36
71976;BME280;60680;52.182;5.398;2022-08-21T02:13:38;101708.47;;;16.36;74.16
71976;BME280;60680;52.182;5.398;2022-08-21T02:16:04;101711.47;;;16.29;74.41
71976;BME280;60680;52.182;5.398;2022-08-21T02:18:31;101714.97;;;16.30;74.06
71976;BME280;60680;52.182;5.398;2022-08-21T02:20:58;101708.00;;;16.29;74.20
71976;BME280;60680;52.182;5.398;2022-08-21T02:23:24;101702.84;;;16.27;74.12
71976;BME280;60680;52.182;5.398;2022-08-21T02:26:04;101705.31;;;16.30;74.43
71976;BME280;60680;52.182;5.398;2022-08-21T02:28:33;101700.50;;;16.23;75.08
71976;BME280;60680;52.182;5.398;2022-08-21T02:31:00;101696.19;;;16.22;74.38
71976;BME280;60680;52.182;5.398;2022-08-21T02:33:28;101697.97;;;16.21;74.55
71976;BME280;60680;52.182;5.398;2022-08-21T02:35:55;101694.88;;;16.15;74.50
71976;BME280;60680;52.182;5.398;2022-08-21T02:38:28;101693.94;;;16.16;74.75
71976;BME280;60680;52.182;5.398;2022-08-21T02:40:56;101687.00;;;16.15;75.01
71976;BME280;60680;52.182;5.398;2022-08-21T02:43:25;101685.31;;;16.14;74.45
71976;BME280;60680;52.182;5.398;2022-08-21T02:45:55;101691.69;;;16.09;75.00
71976;BME280;60680;52.182;5.398;2022-08-21T02:48:24;101682.97;;;16.09;74.66
71976;BME280;60680;52.182;5.398;2022-08-21T02:51:01;101689.06;;;16.09;75.38
71976;BME280;60680;52.182;5.398;2022-08-21T02:53:28;101679.69;;;16.05;75.02
71976;BME280;60680;52.182;5.398;2022-08-21T02:55:58;101681.47;;;16.05;74.94
71976;BME280;60680;52.182;5.398;2022-08-21T02:58:30;101680.03;;;15.99;75.38
71976;BME280;60680;52.182;5.398;2022-08-21T03:00:58;101681.75;;;16.00;75.26
71976;BME280;60680;52.182;5.398;2022-08-21T03:03:25;101672.53;;;15.93;75.79
71976;BME280;60680;52.182;5.398;2022-08-21T03:05:53;101676.19;;;15.90;75.92
71976;BME280;60680;52.182;5.398;2022-08-21T03:08:22;101672.59;;;15.92;75.39
71976;BME280;60680;52.182;5.398;2022-08-21T03:10:53;101672.81;;;15.88;75.56
71976;BME280;60680;52.182;5.398;2022-08-21T03:13:20;101669.50;;;15.85;75.69
71976;BME280;60680;52.182;5.398;2022-08-21T03:15:48;101664.38;;;15.83;75.70
71976;BME280;60680;52.182;5.398;2022-08-21T03:18:16;101669.50;;;15.85;76.07
71976;BME280;60680;52.182;5.398;2022-08-21T03:20:43;101660.88;;;15.83;75.87
71976;BME280;60680;52.182;5.398;2022-08-21T03:23:11;101670.63;;;15.81;75.86
71976;BME280;60680;52.182;5.398;2022-08-21T03:25:42;101663.63;;;15.81;76.11
71976;BME280;60680;52.182;5.398;2022-08-21T03:28:12;101665.56;;;15.78;76.56
71976;BME280;60680;52.182;5.398;2022-08-21T03:30:44;101661.00;;;15.81;76.23
71976;BME280;60680;52.182;5.398;2022-08-21T03:33:11;101668.47;;;15.73;76.37
71976;BME280;60680;52.182;5.398;2022-08-21T03:35:42;101665.84;;;15.73;75.82
71976;BME280;60680;52.182;5.398;2022-08-21T03:38:09;101669.63;;;15.67;76.05
71976;BME280;60680;52.182;5.398;2022-08-21T03:40:36;101663.72;;;15.64;76.58
71976;BME280;60680;52.182;5.398;2022-08-21T03:43:02;101662.72;;;15.66;77.02
71976;BME280;60680;52.182;5.398;2022-08-21T03:45:29;101655.59;;;15.68;76.74
71976;BME280;60680;52.182;5.398;2022-08-21T03:48:01;101659.06;;;15.69;76.68
71976;BME280;60680;52.182;5.398;2022-08-21T03:50:31;101664.31;;;15.69;76.63
71976;BME280;60680;52.182;5.398;2022-08-21T03:53:00;101662.59;;;15.68;76.71
71976;BME280;60680;52.182;5.398;2022-08-21T03:55:27;101651.63;;;15.61;76.80
71976;BME280;60680;52.182;5.398;2022-08-21T03:57:53;101659.09;;;15.53;77.05
71976;BME280;60680;52.182;5.398;2022-08-21T04:00:20;101655.56;;;15.54;77.40
71976;BME280;60680;52.182;5.398;2022-08-21T04:02:47;101659.78;;;15.57;77.42
71976;BME280;60680;52.182;5.398;2022-08-21T04:05:15;101661.56;;;15.56;77.74
71976;BME280;60680;52.182;5.398;2022-08-21T04:07:55;101661.72;;;15.53;77.21
71976;BME280;60680;52.182;5.398;2022-08-21T04:10:22;101660.13;;;15.50;77.09
71976;BME280;60680;52.182;5.398;2022-08-21T04:12:52;101657.59;;;15.49;77.67
71976;BME280;60680;52.182;5.398;2022-08-21T04:15:20;101660.41;;;15.46;77.47
71976;BME280;60680;52.182;5.398;2022-08-21T04:17:47;101659.06;;;15.39;77.95
71976;BME280;60680;52.182;5.398;2022-08-21T04:20:16;101651.38;;;15.36;78.46
71976;BME280;60680;52.182;5.398;2022-08-21T04:22:43;101653.81;;;15.39;78.42
71976;BME280;60680;52.182;5.398;2022-08-21T04:25:11;101655.50;;;15.40;78.01
71976;BME280;60680;52.182;5.398;2022-08-21T04:27:38;101660.81;;;15.38;78.14
71976;BME280;60680;52.182;5.398;2022-08-21T04:30:07;101657.44;;;15.36;78.92
71976;BME280;60680;52.182;5.398;2022-08-21T04:32:36;101662.63;;;15.38;78.49
71976;BME280;60680;52.182;5.398;2022-08-21T04:35:07;101667.19;;;15.34;78.47
71976;BME280;60680;52.182;5.398;2022-08-21T04:37:35;101664.56;;;15.34;78.50
71976;BME280;60680;52.182;5.398;2022-08-21T04:40:10;101662.03;;;15.33;78.78
71976;BME280;60680;52.182;5.398;2022-08-21T04:42:47;101660.25;;;15.33;78.40
71976;BME280;60680;52.182;5.398;2022-08-21T04:45:22;101657.72;;;15.32;78.45
71976;BME280;60680;52.182;5.398;2022-08-21T04:47:50;101661.28;;;15.31;78.53
71976;BME280;60680;52.182;5.398;2022-08-21T04:50:19;101656.31;;;15.26;79.50
71976;BME280;60680;52.182;5.398;2022-08-21T04:52:47;101657.97;;;15.27;79.06
71976;BME280;60680;52.182;5.398;2022-08-21T04:55:16;101661.63;;;15.24;79.05
71976;BME280;60680;52.182;5.398;2022-08-21T04:57:44;101667.41;;;15.15;80.16
71976;BME280;60680;52.182;5.398;2022-08-21T05:00:15;101670.09;;;15.14;79.91
71976;BME280;60680;52.182;5.398;2022-08-21T05:02:44;101673.50;;;15.16;79.48
71976;BME280;60680;52.182;5.398;2022-08-21T05:05:13;101674.41;;;15.15;80.21
71976;BME280;60680;52.182;5.398;2022-08-21T05:07:42;101673.31;;;15.19;79.85
71976;BME280;60680;52.182;5.398;2022-08-21T05:10:12;101678.38;;;15.22;79.69
71976;BME280;60680;52.182;5.398;2022-08-21T05:12:41;101677.38;;;15.24;79.73
71976;BME280;60680;52.182;5.398;2022-08-21T05:15:10;101683.72;;;15.20;79.99
71976;BME280;60680;52.182;5.398;2022-08-21T05:17:42;101688.94;;;15.20;79.99
71976;BME280;60680;52.182;5.398;2022-08-21T05:20:18;101688.88;;;15.22;80.20
71976;BME280;60680;52.182;5.398;2022-08-21T05:22:45;101687.66;;;15.27;79.85
71976;BME280;60680;52.182;5.398;2022-08-21T05:25:12;101688.53;;;15.28;79.88
71976;BME280;60680;52.182;5.398;2022-08-21T05:27:38;101697.31;;;15.27;80.08
71976;BME280;60680;52.182;5.398;2022-08-21T05:30:09;101689.94;;;15.34;79.57
71976;BME280;60680;52.182;5.398;2022-08-21T05:32:36;101691.38;;;15.39;79.24
71976;BME280;60680;52.182;5.398;2022-08-21T05:35:10;101685.94;;;15.42;79.72
71976;BME280;60680;52.182;5.398;2022-08-21T05:37:37;101686.63;;;15.46;79.01
71976;BME280;60680;52.182;5.398;2022-08-21T05:40:04;101693.38;;;15.50;79.13
71976;BME280;60680;52.182;5.398;2022-08-21T05:42:49;101693.38;;;15.50;79.87
71976;BME280;60680;52.182;5.398;2022-08-21T05:45:24;101688.63;;;15.57;79.83
71976;BME280;60680;52.182;5.398;2022-08-21T05:48:35;101690.16;;;15.61;79.60
71976;BME280;60680;52.182;5.398;2022-08-21T05:51:08;101685.66;;;15.63;79.64
71976;BME280;60680;52.182;5.398;2022-08-21T05:53:35;101691.66;;;15.65;80.30
71976;BME280;60680;52.182;5.398;2022-08-21T05:56:02;101685.13;;;15.72;79.97
71976;BME280;60680;52.182;5.398;2022-08-21T05:58:31;101685.91;;;15.74;80.00
71976;BME280;60680;52.182;5.398;2022-08-21T06:01:00;101683.66;;;15.82;80.03
71976;BME280;60680;52.182;5.398;2022-08-21T06:03:30;101680.59;;;15.90;80.30
71976;BME280;60680;52.182;5.398;2022-08-21T06:05:57;101681.91;;;15.97;80.26
71976;BME280;60680;52.182;5.398;2022-08-21T06:08:24;101687.84;;;16.01;80.50
71976;BME280;60680;52.182;5.398;2022-08-21T06:10:52;101682.84;;;16.10;80.61
71976;BME280;60680;52.182;5.398;2022-08-21T06:13:21;101685.59;;;16.23;79.87
71976;BME280;60680;52.182;5.398;2022-08-21T06:15:48;101682.22;;;16.36;79.75
71976;BME280;60680;52.182;5.398;2022-08-21T06:18:15;101681.66;;;16.45;79.92
71976;BME280;60680;52.182;5.398;2022-08-21T06:20:42;101689.63;;;16.58;79.26
71976;BME280;60680;52.182;5.398;2022-08-21T06:23:09;101681.16;;;16.67;79.23
71976;BME280;60680;52.182;5.398;2022-08-21T06:25:35;101684.44;;;16.85;78.83
71976;BME280;60680;52.182;5.398;2022-08-21T06:28:07;101683.41;;;16.87;78.63
71976;BME280;60680;52.182;5.398;2022-08-21T06:30:35;101686.22;;;16.84;79.18
71976;BME280;60680;52.182;5.398;2022-08-21T06:33:03;101673.91;;;16.85;78.54
71976;BME280;60680;52.182;5.398;2022-08-21T06:35:30;101681.34;;;16.92;79.38
71976;BME280;60680;52.182;5.398;2022-08-21T06:37:57;101688.63;;;17.02;78.76
71976;BME280;60680;52.182;5.398;2022-08-21T06:40:26;101681.88;;;17.25;78.37
71976;BME280;60680;52.182;5.398;2022-08-21T06:42:55;101681.75;;;17.41;77.93
71976;BME280;60680;52.182;5.398;2022-08-21T06:45:22;101684.84;;;17.60;77.05
71976;BME280;60680;52.182;5.398;2022-08-21T06:47:48;101683.53;;;17.53;77.71
71976;BME280;60680;52.182;5.398;2022-08-21T06:50:14;101681.63;;;17.82;76.71
71976;BME280;60680;52.182;5.398;2022-08-21T06:52:41;101688.34;;;18.38;74.76
71976;BME280;60680;52.182;5.398;2022-08-21T06:55:09;101683.97;;;18.75;72.91
71976;BME280;60680;52.182;5.398;2022-08-21T06:57:36;101687.44;;;18.75;72.82
71976;BME280;60680;52.182;5.398;2022-08-21T07:00:04;101682.75;;;19.05;71.96
71976;BME280;60680;52.182;5.398;2022-08-21T07:02:31;101676.00;;;19.01;72.46
71976;BME280;60680;52.182;5.398;2022-08-21T07:04:59;101682.00;;;18.66;73.26
71976;BME280;60680;52.182;5.398;2022-08-21T07:07:26;101677.38;;;18.44;74.20
71976;BME280;60680;52.182;5.398;2022-08-21T07:09:52;101682.91;;;18.28;75.14
71976;BME280;60680;52.182;5.398;2022-08-21T07:12:19;101683.84;;;18.14;75.34
71976;BME280;60680;52.182;5.398;2022-08-21T07:14:45;101672.06;;;18.07;76.29
71976;BME280;60680;52.182;5.398;2022-08-21T07:17:12;101687.13;;;18.05;76.65
71976;BME280;60680;52.182;5.398;2022-08-21T07:19:38;101678.81;;;18.11;76.73
71976;BME280;60680;52.182;5.398;2022-08-21T07:22:05;101679.22;;;18.18;76.95
71976;BME280;60680;52.182;5.398;2022-08-21T07:24:31;101677.84;;;18.25;77.05
71976;BME280;60680;52.182;5.398;2022-08-21T07:26:58;101681.22;;;18.27;76.51
71976;BME280;60680;52.182;5.398;2022-08-21T07:29:24;101675.44;;;18.22;76.51
71976;BME280;60680;52.182;5.398;2022-08-21T07:31:50;101679.72;;;18.23;76.91
71976;BME280;60680;52.182;5.398;2022-08-21T07:34:17;101682.69;;;18.31;76.71
71976;BME280;60680;52.182;5.398;2022-08-21T07:36:44;101679.53;;;18.39;76.79
71976;BME280;60680;52.182;5.398;2022-08-21T07:39:11;101678.13;;;18.46;76.49
71976;BME280;60680;52.182;5.398;2022-08-21T07:41:37;101680.84;;;18.57;76.26
71976;BME280;60680;52.182;5.398;2022-08-21T07:44:04;101684.75;;;18.64;76.59
71976;BME280;60680;52.182;5.398;2022-08-21T07:46:32;101693.06;;;18.71;76.67
71976;BME280;60680;52.182;5.398;2022-08-21T07:48:58;101685.47;;;18.79;75.84
71976;BME280;60680;52.182;5.398;2022-08-21T07:51:26;101683.34;;;18.84;76.24
71976;BME280;60680;52.182;5.398;2022-08-21T07:53:56;101673.38;;;19.01;76.02
71976;BME280;60680;52.182;5.398;2022-08-21T07:56:22;101686.84;;;19.09;75.82
71976;BME280;60680;52.182;5.398;2022-08-21T07:58:49;101685.81;;;19.23;75.33
71976;BME280;60680;52.182;5.398;2022-08-21T08:01:16;101693.13;;;19.19;74.74
71976;BME280;60680;52.182;5.398;2022-08-21T08:03:43;101687.53;;;19.24;74.53
71976;BME280;60680;52.182;5.398;2022-08-21T08:06:09;101684.75;;;19.25;75.11
71976;BME280;60680;52.182;5.398;2022-08-21T08:08:39;101682.28;;;19.35;74.57
71976;BME280;60680;52.182;5.398;2022-08-21T08:11:09;101672.09;;;19.42;74.52
71976;BME280;60680;52.182;5.398;2022-08-21T08:13:40;101672.03;;;19.54;74.65
71976;BME280;60680;52.182;5.398;2022-08-21T08:16:07;101663.84;;;19.70;74.14
71976;BME280;60680;52.182;5.398;2022-08-21T08:18:34;101663.13;;;19.80;73.53
71976;BME280;60680;52.182;5.398;2022-08-21T08:21:00;101658.22;;;19.86;73.24
71976;BME280;60680;52.182;5.398;2022-08-21T08:23:27;101667.47;;;19.92;72.73
71976;BME280;60680;52.182;5.398;2022-08-21T08:25:53;101672.16;;;20.00;72.78
71976;BME280;60680;52.182;5.398;2022-08-21T08:28:20;101669.59;;;19.87;72.95
71976;BME280;60680;52.182;5.398;2022-08-21T08:30:48;101669.13;;;19.93;72.60
71976;BME280;60680;52.182;5.398;2022-08-21T08:33:16;101669.13;;;19.93;72.27
71976;BME280;60680;52.182;5.398;2022-08-21T08:35:45;101672.66;;;20.05;72.72
71976;BME280;60680;52.182;5.398;2022-08-21T08:38:13;101663.28;;;20.12;71.92
71976;BME280;60680;52.182;5.398;2022-08-21T08:40:52;101668.22;;;20.28;72.41
71976;BME280;60680;52.182;5.398;2022-08-21T08:43:21;101672.56;;;20.40;71.71
71976;BME280;60680;52.182;5.398;2022-08-21T08:45:50;101667.00;;;20.43;72.20
71976;BME280;60680;52.182;5.398;2022-08-21T08:51:02;101673.75;;;20.59;71.00
71976;BME280;60680;52.182;5.398;2022-08-21T08:53:41;101670.16;;;20.60;70.60
71976;BME280;60680;52.182;5.398;2022-08-21T08:56:12;101672.06;;;20.58;70.21
71976;BME280;60680;52.182;5.398;2022-08-21T08:58:41;101671.81;;;20.61;70.04
71976;BME280;60680;52.182;5.398;2022-08-21T09:01:16;101665.31;;;20.65;70.27
71976;BME280;60680;52.182;5.398;2022-08-21T09:03:45;101671.31;;;20.78;69.96
71976;BME280;60680;52.182;5.398;2022-08-21T09:15:15;101656.28;;;20.79;69.60
71976;BME280;60680;52.182;5.398;2022-08-21T09:26:24;101654.97;;;20.73;70.05
71976;BME280;60680;52.182;5.398;2022-08-21T09:28:53;101655.69;;;20.75;68.93
71976;BME280;60680;52.182;5.398;2022-08-21T09:31:33;101654.41;;;21.02;68.29
71976;BME280;60680;52.182;5.398;2022-08-21T09:34:08;101660.97;;;21.39;67.93
71976;BME280;60680;52.182;5.398;2022-08-21T09:36:47;101662.84;;;21.60;67.18
71976;BME280;60680;52.182;5.398;2022-08-21T09:39:24;101658.34;;;21.51;64.85
71976;BME280;60680;52.182;5.398;2022-08-21T09:41:57;101663.16;;;21.46;64.95
71976;BME280;60680;52.182;5.398;2022-08-21T09:44:29;101663.44;;;21.43;65.61
71976;BME280;60680;52.182;5.398;2022-08-21T09:46:56;101664.13;;;21.33;64.60
71976;BME280;60680;52.182;5.398;2022-08-21T09:49:31;101661.50;;;21.33;65.53
71976;BME280;60680;52.182;5.398;2022-08-21T09:51:59;101667.44;;;21.26;66.62
71976;BME280;60680;52.182;5.398;2022-08-21T09:54:30;101663.19;;;21.34;66.28
71976;BME280;60680;52.182;5.398;2022-08-21T09:57:00;101661.25;;;21.36;65.64
71976;BME280;60680;52.182;5.398;2022-08-21T09:59:46;101660.66;;;21.33;66.66
71976;BME280;60680;52.182;5.398;2022-08-21T10:02:29;101657.41;;;21.29;66.06
71976;BME280;60680;52.182;5.398;2022-08-21T10:07:31;101647.75;;;21.39;64.87
71976;BME280;60680;52.182;5.398;2022-08-21T10:12:35;101647.47;;;21.75;62.79
71976;BME280;60680;52.182;5.398;2022-08-21T10:18:09;101646.19;;;22.00;63.00
71976;BME280;60680;52.182;5.398;2022-08-21T10:20:44;101645.53;;;22.08;63.19
71976;BME280;60680;52.182;5.398;2022-08-21T10:25:50;101642.97;;;21.96;62.52
71976;BME280;60680;52.182;5.398;2022-08-21T10:31:32;101649.69;;;22.31;62.86
71976;BME280;60680;52.182;5.398;2022-08-21T10:34:27;101635.47;;;22.32;61.08
71976;BME280;60680;52.182;5.398;2022-08-21T10:37:16;101635.06;;;22.37;62.01
71976;BME280;60680;52.182;5.398;2022-08-21T10:40:02;101632.81;;;22.32;61.71
71976;BME280;60680;52.182;5.398;2022-08-21T10:42:43;101637.06;;;22.54;60.95
71976;BME280;60680;52.182;5.398;2022-08-21T10:45:42;101630.53;;;22.68;58.86
71976;BME280;60680;52.182;5.398;2022-08-21T10:48:28;101630.41;;;22.79;58.86
71976;BME280;60680;52.182;5.398;2022-08-21T10:56:34;101626.78;;;22.90;60.03
71976;BME280;60680;52.182;5.398;2022-08-21T10:59:32;101621.31;;;22.82;60.64
71976;BME280;60680;52.182;5.398;2022-08-21T11:04:48;101624.03;;;23.02;57.57
71976;BME280;60680;52.182;5.398;2022-08-21T11:07:31;101614.63;;;22.88;58.74
71976;BME280;60680;52.182;5.398;2022-08-21T11:10:18;101619.28;;;23.05;60.00
71976;BME280;60680;52.182;5.398;2022-08-21T11:12:52;101622.16;;;22.92;57.48
71976;BME280;60680;52.182;5.398;2022-08-21T11:18:19;101620.63;;;22.90;57.13
71976;BME280;60680;52.182;5.398;2022-08-21T11:23:50;101622.56;;;22.78;57.46
71976;BME280;60680;52.182;5.398;2022-08-21T11:26:28;101613.91;;;22.66;57.37
71976;BME280;60680;52.182;5.398;2022-08-21T11:29:04;101621.72;;;22.58;57.96
71976;BME280;60680;52.182;5.398;2022-08-21T11:31:47;101612.81;;;22.59;58.76
71976;BME280;60680;52.182;5.398;2022-08-21T11:34:30;101610.00;;;22.51;56.90
71976;BME280;60680;52.182;5.398;2022-08-21T11:40:16;101622.28;;;22.62;58.14
71976;BME280;60680;52.182;5.398;2022-08-21T11:42:58;101627.97;;;22.47;58.28
71976;BME280;60680;52.182;5.398;2022-08-21T11:48:16;101634.03;;;22.88;59.03
71976;BME280;60680;52.182;5.398;2022-08-21T11:50:49;101634.91;;;22.89;58.60
71976;BME280;60680;52.182;5.398;2022-08-21T11:53:32;101640.81;;;23.02;58.64
71976;BME280;60680;52.182;5.398;2022-08-21T11:56:09;101646.13;;;23.31;58.51
71976;BME280;60680;52.182;5.398;2022-08-21T12:01:11;101644.53;;;23.68;57.01
71976;BME280;60680;52.182;5.398;2022-08-21T12:03:41;101645.50;;;23.76;57.98
71976;BME280;60680;52.182;5.398;2022-08-21T12:06:11;101639.63;;;23.83;56.05
71976;BME280;60680;52.182;5.398;2022-08-21T12:08:58;101639.31;;;23.86;56.98
71976;BME280;60680;52.182;5.398;2022-08-21T12:11:25;101635.06;;;23.93;54.80
71976;BME280;60680;52.182;5.398;2022-08-21T12:16:37;101638.06;;;24.17;55.95
71976;BME280;60680;52.182;5.398;2022-08-21T12:19:16;101627.09;;;24.30;54.09
71976;BME280;60680;52.182;5.398;2022-08-21T12:21:58;101634.47;;;24.09;54.08
71976;BME280;60680;52.182;5.398;2022-08-21T12:24:40;101635.69;;;23.87;55.21
71976;BME280;60680;52.182;5.398;2022-08-21T12:35:10;101629.47;;;23.96;55.47
71976;BME280;60680;52.182;5.398;2022-08-21T12:38:06;101635.69;;;23.77;55.93
71976;BME280;60680;52.182;5.398;2022-08-21T12:40:58;101630.66;;;23.84;54.86
71976;BME280;60680;52.182;5.398;2022-08-21T12:43:50;101629.50;;;23.86;54.48
71976;BME280;60680;52.182;5.398;2022-08-21T12:46:20;101631.69;;;24.00;55.89
71976;BME280;60680;52.182;5.398;2022-08-21T12:49:02;101634.03;;;24.41;54.80
71976;BME280;60680;52.182;5.398;2022-08-21T12:54:22;101639.84;;;24.27;53.90
71976;BME280;60680;52.182;5.398;2022-08-21T12:57:03;101646.38;;;24.05;54.11
71976;BME280;60680;52.182;5.398;2022-08-21T12:59:30;101641.84;;;23.77;54.37
71976;BME280;60680;52.182;5.398;2022-08-21T13:01:59;101644.78;;;23.65;54.20
71976;BME280;60680;52.182;5.398;2022-08-21T13:04:36;101640.59;;;23.72;54.38
71976;BME280;60680;52.182;5.398;2022-08-21T13:07:11;101641.53;;;23.90;53.53
71976;BME280;60680;52.182;5.398;2022-08-21T13:09:49;101642.75;;;24.06;52.91
71976;BME280;60680;52.182;5.398;2022-08-21T13:12:17;101641.56;;;24.18;52.74
71976;BME280;60680;52.182;5.398;2022-08-21T13:14:46;101650.19;;;24.30;52.40
71976;BME280;60680;52.182;5.398;2022-08-21T13:17:15;101647.44;;;24.21;53.01
71976;BME280;60680;52.182;5.398;2022-08-21T13:19:59;101652.50;;;24.42;53.11
71976;BME280;60680;52.182;5.398;2022-08-21T13:22:27;101648.34;;;24.40;51.15
71976;BME280;60680;52.182;5.398;2022-08-21T13:25:00;101654.44;;;24.50;50.88
71976;BME280;60680;52.182;5.398;2022-08-21T13:27:32;101642.50;;;24.54;50.79
71976;BME280;60680;52.182;5.398;2022-08-21T13:30:18;101645.03;;;24.56;50.64
71976;BME280;60680;52.182;5.398;2022-08-21T13:32:50;101639.66;;;24.66;51.81
71976;BME280;60680;52.182;5.398;2022-08-21T13:35:22;101639.13;;;24.62;51.34
71976;BME280;60680;52.182;5.398;2022-08-21T13:37:50;101635.63;;;24.61;51.78
71976;BME280;60680;52.182;5.398;2022-08-21T13:40:38;101639.50;;;24.67;51.51
71976;BME280;60680;52.182;5.398;2022-08-21T13:43:12;101634.41;;;24.56;52.30
71976;BME280;60680;52.182;5.398;2022-08-21T13:45:50;101643.69;;;24.42;51.67
71976;BME280;60680;52.182;5.398;2022-08-21T13:48:18;101644.03;;;24.29;52.28
71976;BME280;60680;52.182;5.398;2022-08-21T13:50:45;101639.94;;;24.35;52.51
71976;BME280;60680;52.182;5.398;2022-08-21T13:53:31;101635.81;;;24.50;52.72
71976;BME280;60680;52.182;5.398;2022-08-21T13:55:59;101631.22;;;24.70;51.59
71976;BME280;60680;52.182;5.398;2022-08-21T13:58:32;101640.59;;;24.74;51.97
71976;BME280;60680;52.182;5.398;2022-08-21T14:01:00;101636.53;;;24.88;51.17
71976;BME280;60680;52.182;5.398;2022-08-21T14:03:37;101635.03;;;24.86;51.31
71976;BME280;60680;52.182;5.398;2022-08-21T14:06:12;101634.44;;;24.74;51.56
71976;BME280;60680;52.182;5.398;2022-08-21T14:08:40;101639.06;;;24.72;51.88
71976;BME280;60680;52.182;5.398;2022-08-21T14:11:11;101629.72;;;24.68;51.70
71976;BME280;60680;52.182;5.398;2022-08-21T14:14:16;101634.34;;;24.66;51.11
71976;BME280;60680;52.182;5.398;2022-08-21T14:16:53;101638.47;;;24.50;52.31
71976;BME280;60680;52.182;5.398;2022-08-21T14:19:27;101637.97;;;24.37;52.49
71976;BME280;60680;52.182;5.398;2022-08-21T14:21:54;101640.94;;;24.34;53.92